El Hierro > ESTACION METEOROLÓGICA Echedo

DATOS ACTUALES Online

Ultima actulizacion 25 minutos

17.1 ºC

Temperatura

85

Humedad (%)

974.9

Presión (mb)

0

Precipitación (mm)

13.7 SO

Viento (Km/h)

DATOS DIARIOS

Temperatura últimas 24 horas (ºC)

Humedad últimas 24 horas (%)

Presión atmosférica últimas 24 horas (mb)

Precipitaciones últimas 23 horas (mm)

Viento últimas 24 horas (Km/h)

Hora Temperatura (°C) ºC Precipitación (mm) mm Presión (mb) mb Humedad (%) % Viento (Km/h) km/h
28 - 23:00 16.8 0 976 83 14 O
29 - 00:00 17 0 976 84 14.8 SO
29 - 01:00 16.8 0 976 87 10.1 SO
29 - 02:00 16.8 0 975 88 10.4 SO
29 - 03:00 16.8 0 975 88 5 SO
29 - 04:00 16.8 0 974 87 7.9 SO
29 - 05:00 16.8 0 975 87 3.2 SO
29 - 06:00 16.8 0 975 82 2.9 O
29 - 07:00 16.4 0 975 85 3.2 NO
29 - 08:00 17.2 0 975 84 6.8 SO
29 - 09:00 17.4 0 976 84 5.8 O
29 - 10:00 17.6 0 976 84 6.8 S
29 - 11:00 17.5 0 976 82 10.4 S
29 - 12:00 18.3 0 976 79 13 S
29 - 13:00 18.8 0 976 76 15.8 S
29 - 14:00 18.9 0 975 73 16.2 SO
29 - 15:00 19.6 0 975 72 17.3 SO
29 - 16:00 19.4 0 975 72 18.7 S
29 - 17:00 19.1 0 975 76 19.4 SO
29 - 18:00 18.4 0 975 79 22.7 SO
29 - 19:00 18.1 0 974 80 26.3 SO
29 - 20:00 18.3 0 975 74 15.5 SO
29 - 21:00 17.3 0 975 77 17.3 SO
29 - 22:00 17.1 0 975 84 19.1 SO
29 - 23:00 17.1 0 975 85 13.7 SO
Apalmet utiliza cookies propias y de terceros para mejorar la usabilidad y la experiencia web. Política de cookies.